This is the latest recevied weather packets stored in our database for station/object OM6ACB-6. If no packets are shown the sender has not sent any weather packets the latest 10 day(s).
| Time | Temp. | Humidity | Pressure | Rain* | Wind** | Luminosity | Snow |
|---|---|---|---|---|---|---|---|
| 1777605079 | 1.67° C | 32% | 1027.5 hPa | 0 mm | - | - | - |
| 1777604478 | 1.11° C | 32% | 1027.5 hPa | 0 mm | - | - | - |
| 1777603878 | 1.11° C | 32% | 1027.5 hPa | 0 mm | - | - | - |
| 1777603278 | 1.11° C | 32% | 1027.5 hPa | 0 mm | - | - | - |
| 1777602678 | 1.11° C | 32% | 1027.4 hPa | 0 mm | - | - | - |
| 1777586470 | -0.56° C | 33% | 1027.3 hPa | 0 mm | - | - | - |
| 1777584669 | 0° C | 33% | 1027.2 hPa | 0 mm | - | - | - |
| 1777584068 | -0.56° C | 33% | 1027.2 hPa | 0 mm | - | - | - |
| 1777583468 | 0° C | 33% | 1027.2 hPa | 0 mm | - | - | - |
| 1777582868 | 0.56° C | 32% | 1027.2 hPa | 0 mm | - | - | - |
| 1777582268 | 0.56° C | 32% | 1027.3 hPa | 0 mm | - | - | - |
| 1777581067 | 1.11° C | 32% | 1027.4 hPa | 0 mm | - | - | - |
| 1777580467 | 1.67° C | 32% | 1027.4 hPa | 0 mm | - | - | - |
| 1777579866 | 1.67° C | 32% | 1027.3 hPa | 0 mm | - | - | - |
| 1777578066 | 3.33° C | 31% | 1027.5 hPa | 0 mm | - | - | - |
| 1777577465 | 3.33° C | 31% | 1027.4 hPa | 0 mm | - | - | - |
| 1777574464 | 3.89° C | 31% | 1027.2 hPa | 0 mm | - | - | - |
| 1777573864 | 3.89° C | 30% | 1027.2 hPa | 0 mm | - | - | - |
| 1777573263 | 5° C | 30% | 1027.3 hPa | 0 mm | - | - | - |
| 1777572063 | 7.78° C | 29% | 1027.5 hPa | 0 mm | - | - | - |
| 1777570262 | -31.67° C | - | - | - | - | - | - |
| 1777569662 | 9.44° C | 28% | 1027.6 hPa | 0 mm | - | - | - |
| 1777568461 | 10.56° C | 27% | 1027.7 hPa | 0 mm | - | - | - |
| 1777566060 | 12.22° C | 26% | 1027.9 hPa | 0 mm | - | - | - |
| 1777565459 | 12.22° C | 26% | 1027.9 hPa | 0 mm | - | - | - |
* Rain latest hour (hover to see other rain measurements)
** Current wind speed in m/s (hover to see current wind gust speed)